createdAt,value
2022-09-16T00:00:43.886Z,7.45
2022-09-16T00:03:11.904Z,6.80
2022-09-16T00:05:56.833Z,6.95
2022-09-16T00:08:23.551Z,7.57
2022-09-16T00:10:51.243Z,7.10
2022-09-16T00:13:18.851Z,7.70
2022-09-16T00:15:49.089Z,7.53
2022-09-16T00:18:15.768Z,7.72
2022-09-16T00:20:44.655Z,7.85
2022-09-16T00:23:11.333Z,7.88
2022-09-16T00:25:37.974Z,8.30
2022-09-16T00:28:04.692Z,8.60
2022-09-16T00:30:31.498Z,8.38
2022-09-16T00:32:58.246Z,9.13
2022-09-16T00:35:24.883Z,7.20
2022-09-16T00:37:51.490Z,8.13
2022-09-16T00:40:18.265Z,7.70
2022-09-16T00:42:45.265Z,7.68
2022-09-16T00:45:21.094Z,6.82
2022-09-16T00:48:01.749Z,7.43
2022-09-16T00:50:38.507Z,7.45
2022-09-16T00:53:09.561Z,7.50
2022-09-16T00:55:37.711Z,7.30
2022-09-16T00:58:35.523Z,7.00
2022-09-16T01:01:05.790Z,6.40
2022-09-16T01:03:39.434Z,6.70
2022-09-16T01:06:06.943Z,6.60
2022-09-16T01:08:33.970Z,6.35
2022-09-16T01:11:00.885Z,6.50
2022-09-16T01:13:27.585Z,6.40
2022-09-16T01:15:54.173Z,6.28
2022-09-16T01:18:42.275Z,6.63
2022-09-16T01:21:31.362Z,5.95
2022-09-16T01:24:04.243Z,6.05
2022-09-16T01:27:05.042Z,5.72
2022-09-16T01:29:56.489Z,6.00
2022-09-16T01:32:28.217Z,6.00
2022-09-16T01:35:08.413Z,5.63
2022-09-16T01:38:16.940Z,5.68
2022-09-16T01:40:54.315Z,5.43
2022-09-16T01:43:55.887Z,5.18
2022-09-16T01:46:44.563Z,5.00
2022-09-16T01:49:20.240Z,5.60
2022-09-16T01:52:03.099Z,5.65
2022-09-16T01:54:47.642Z,4.97
2022-09-16T01:57:21.818Z,5.35
2022-09-16T01:59:58.906Z,5.00
2022-09-16T02:02:34.797Z,5.40
2022-09-16T02:05:05.917Z,5.43
2022-09-16T02:07:41.284Z,5.30
2022-09-16T02:10:24.989Z,5.50
2022-09-16T02:12:55.181Z,5.88
2022-09-16T02:15:25.332Z,5.75
2022-09-16T02:18:04.597Z,6.07
2022-09-16T02:20:35.866Z,5.55
2022-09-16T02:23:29.361Z,6.25
2022-09-16T02:25:58.012Z,7.03
2022-09-16T02:28:30.940Z,6.82
2022-09-16T02:31:01.834Z,7.30
2022-09-16T02:33:42.982Z,7.53
2022-09-16T02:36:14.159Z,7.22
2022-09-16T02:38:46.166Z,6.80
2022-09-16T02:41:14.929Z,6.65
2022-09-16T02:43:42.830Z,7.35
2022-09-16T02:46:19.130Z,8.68
2022-09-16T02:49:05.866Z,8.63
2022-09-16T02:52:06.031Z,8.05
2022-09-16T02:54:50.156Z,8.57
2022-09-16T02:57:17.154Z,8.77
2022-09-16T02:59:44.549Z,8.68
2022-09-16T03:02:11.496Z,9.07
2022-09-16T03:04:38.511Z,8.88
2022-09-16T03:07:08.111Z,9.85
2022-09-16T03:09:41.990Z,8.90
2022-09-16T03:12:32.413Z,8.13
2022-09-16T03:15:17.557Z,8.93
2022-09-16T03:18:29.039Z,8.40
2022-09-16T03:21:08.301Z,8.43
2022-09-16T03:24:04.481Z,8.13
2022-09-16T03:26:46.152Z,7.05
2022-09-16T03:29:31.351Z,7.00
2022-09-16T03:32:07.148Z,7.88
2022-09-16T03:34:37.342Z,7.78
2022-09-16T03:37:08.861Z,7.50
2022-09-16T03:39:36.777Z,6.82
2022-09-16T03:42:06.135Z,7.65
2022-09-16T03:44:39.303Z,7.82
2022-09-16T03:47:07.659Z,6.90
2022-09-16T03:49:35.006Z,6.65
2022-09-16T03:52:01.839Z,7.00
2022-09-16T03:54:28.442Z,7.43
2022-09-16T03:56:55.051Z,6.88
2022-09-16T03:59:22.151Z,7.30
2022-09-16T04:01:49.044Z,8.15
2022-09-16T04:04:15.644Z,7.78
2022-09-16T04:06:42.384Z,7.15
2022-09-16T04:09:12.200Z,8.23
2022-09-16T04:11:41.982Z,6.55
2022-09-16T04:14:08.605Z,7.25
2022-09-16T04:16:35.282Z,8.65
2022-09-16T04:19:02.085Z,8.60
2022-09-16T04:21:29.479Z,9.35
2022-09-16T04:23:56.166Z,8.45
2022-09-16T04:26:22.888Z,8.15
2022-09-16T04:28:53.072Z,7.88
2022-09-16T04:31:19.888Z,8.40
2022-09-16T04:33:46.600Z,8.82
2022-09-16T04:36:15.797Z,8.75
2022-09-16T04:38:44.036Z,8.38
2022-09-16T04:41:12.870Z,8.07
2022-09-16T04:43:40.068Z,7.85
2022-09-16T04:46:07.760Z,8.93
2022-09-16T04:48:35.227Z,8.32
2022-09-16T04:51:10.920Z,8.55
2022-09-16T04:53:39.338Z,8.38
2022-09-16T04:56:15.772Z,8.30
2022-09-16T04:58:48.021Z,8.43
2022-09-16T05:03:45.085Z,8.75
2022-09-16T05:06:19.716Z,9.55
2022-09-16T05:08:48.070Z,9.13
2022-09-16T05:11:20.215Z,9.63
2022-09-16T05:13:47.533Z,8.77
2022-09-16T05:16:16.985Z,10.05
2022-09-16T05:18:45.239Z,9.25
2022-09-16T05:21:14.707Z,9.15
2022-09-16T05:23:46.768Z,8.18
2022-09-16T05:26:15.403Z,7.50
2022-09-16T05:28:42.423Z,6.78
2022-09-16T05:31:10.104Z,6.93
2022-09-16T05:33:37.375Z,7.05
2022-09-16T05:36:13.211Z,7.00
2022-09-16T05:38:39.937Z,6.97
2022-09-16T05:41:07.366Z,7.63
2022-09-16T05:43:35.053Z,6.75
2022-09-16T05:46:02.050Z,6.25
2022-09-16T05:48:29.050Z,5.53
2022-09-16T05:50:58.210Z,5.55
2022-09-16T05:53:26.455Z,5.78
2022-09-16T05:56:00.180Z,6.35
2022-09-16T05:58:28.648Z,5.85
2022-09-16T06:01:13.219Z,6.07
2022-09-16T06:03:41.769Z,13.38
2022-09-16T06:06:19.634Z,5.82
2022-09-16T06:08:46.482Z,5.32
2022-09-16T06:11:13.169Z,5.57
2022-09-16T06:13:40.508Z,5.60
2022-09-16T06:16:09.239Z,5.40
2022-09-16T06:18:37.264Z,5.47
2022-09-16T06:21:10.270Z,5.90
2022-09-16T06:23:38.579Z,6.55
2022-09-16T06:26:11.485Z,6.10
2022-09-16T06:28:38.694Z,5.40
2022-09-16T06:31:12.482Z,5.53
2022-09-16T06:33:40.126Z,5.25
2022-09-16T06:36:09.923Z,5.32
2022-09-16T06:38:37.081Z,3.90
2022-09-16T06:41:06.987Z,3.80
2022-09-16T06:43:34.617Z,3.80
2022-09-16T06:46:06.366Z,3.78
2022-09-16T06:48:34.554Z,3.85
2022-09-16T06:51:06.200Z,4.00
2022-09-16T06:53:33.858Z,4.70
2022-09-16T06:56:05.281Z,4.28
2022-09-16T06:58:33.330Z,4.40
2022-09-16T07:01:05.211Z,5.28
2022-09-16T07:03:32.033Z,4.05
2022-09-16T07:06:02.613Z,4.57
2022-09-16T07:08:31.260Z,3.30
2022-09-16T07:11:04.130Z,3.22
2022-09-16T07:13:31.571Z,3.42
2022-09-16T07:16:14.709Z,3.45
2022-09-16T07:18:42.517Z,3.38
2022-09-16T07:21:17.475Z,3.53
2022-09-16T07:23:45.756Z,3.50
2022-09-16T07:26:15.525Z,3.60
2022-09-16T07:28:44.025Z,3.90
2022-09-16T07:31:13.572Z,3.88
2022-09-16T07:33:42.523Z,4.57
2022-09-16T07:36:11.984Z,4.70
2022-09-16T07:38:38.904Z,4.40
2022-09-16T07:41:11.880Z,5.10
2022-09-16T07:43:42.974Z,6.95
2022-09-16T07:46:11.811Z,6.28
2022-09-16T07:48:39.051Z,6.10
2022-09-16T07:51:08.439Z,6.38
2022-09-16T07:53:36.126Z,6.55
2022-09-16T07:56:03.766Z,6.97
2022-09-16T07:58:30.853Z,6.00
2022-09-16T08:01:02.003Z,7.00
2022-09-16T08:03:31.891Z,5.72
2022-09-16T08:06:03.763Z,6.35
2022-09-16T08:08:31.557Z,6.15
2022-09-16T08:10:59.800Z,5.50
2022-09-16T08:13:29.276Z,6.10
2022-09-16T08:16:02.105Z,6.50
2022-09-16T08:18:29.160Z,6.75
2022-09-16T08:20:56.109Z,6.68
2022-09-16T08:23:23.227Z,6.90
2022-09-16T08:25:59.974Z,6.45
2022-09-16T08:28:39.622Z,6.57
2022-09-16T08:31:15.019Z,5.95
2022-09-16T08:33:42.474Z,6.43
2022-09-16T08:36:18.021Z,5.82
2022-09-16T08:38:44.907Z,6.43
2022-09-16T08:41:49.144Z,5.40
2022-09-16T08:44:18.561Z,4.35
2022-09-16T08:46:48.015Z,4.70
2022-09-16T08:49:29.225Z,4.85
2022-09-16T08:51:58.476Z,4.72
2022-09-16T08:54:30.558Z,4.80
2022-09-16T08:59:31.906Z,5.15
2022-09-16T09:02:25.135Z,9.38
2022-09-16T09:04:52.261Z,5.60
2022-09-16T09:07:21.926Z,5.55
2022-09-16T09:10:08.524Z,3.83
2022-09-16T09:12:41.785Z,3.60
2022-09-16T09:15:16.737Z,3.70
2022-09-16T09:18:15.715Z,3.42
2022-09-16T09:20:51.743Z,3.63
2022-09-16T09:23:40.469Z,3.45
2022-09-16T09:26:33.492Z,3.15
2022-09-16T09:29:23.583Z,2.85
2022-09-16T09:32:19.959Z,3.05
2022-09-16T09:34:55.699Z,2.88
2022-09-16T09:37:28.415Z,3.30
2022-09-16T09:39:58.245Z,3.40
2022-09-16T09:42:30.605Z,3.22
2022-09-16T09:45:38.253Z,3.10
2022-09-16T09:48:24.802Z,3.08
2022-09-16T09:50:53.399Z,3.40
2022-09-16T09:53:29.114Z,3.30
2022-09-16T09:56:33.437Z,3.60
2022-09-16T09:59:19.910Z,2.90
2022-09-16T10:01:46.688Z,3.33
2022-09-16T10:04:16.323Z,3.05
2022-09-16T10:06:45.990Z,3.40
2022-09-16T10:09:15.577Z,3.22
2022-09-16T10:11:57.887Z,3.03
2022-09-16T10:17:05.844Z,3.30
2022-09-16T10:19:38.875Z,2.95
2022-09-16T10:22:21.596Z,3.20
2022-09-16T10:25:04.770Z,5.90
2022-09-16T10:27:36.068Z,3.67
2022-09-16T10:30:08.715Z,5.82
2022-09-16T10:32:46.451Z,3.50
2022-09-16T10:35:20.624Z,3.35
2022-09-16T10:38:15.808Z,3.63
2022-09-16T10:40:57.882Z,3.97
2022-09-16T10:43:26.277Z,3.92
2022-09-16T10:45:54.246Z,4.30
2022-09-16T10:48:26.351Z,3.88
2022-09-16T10:50:57.297Z,4.63
2022-09-16T10:53:32.296Z,4.70
2022-09-16T10:56:04.850Z,5.43
2022-09-16T10:58:31.854Z,4.20
2022-09-16T11:00:58.531Z,3.80
2022-09-16T11:03:43.877Z,3.70
2022-09-16T11:06:19.329Z,4.13
2022-09-16T11:09:01.144Z,4.13
2022-09-16T11:11:41.411Z,3.92
2022-09-16T11:14:35.146Z,3.35
2022-09-16T11:17:30.802Z,3.35
2022-09-16T11:20:39.720Z,3.60
2022-09-16T11:23:09.161Z,3.78
2022-09-16T11:25:50.215Z,3.13
2022-09-16T11:28:35.146Z,3.70
2022-09-16T11:31:29.575Z,4.13
2022-09-16T11:34:24.392Z,3.60
2022-09-16T11:36:55.628Z,3.70
2022-09-16T11:39:45.141Z,3.77
2022-09-16T11:42:52.518Z,4.00
2022-09-16T11:45:21.989Z,3.83
2022-09-16T11:48:12.249Z,3.78
2022-09-16T11:50:38.898Z,3.97
2022-09-16T11:53:39.133Z,3.97
2022-09-16T11:56:21.733Z,4.07
2022-09-16T11:58:56.559Z,3.38
2022-09-16T12:01:40.181Z,4.13
2022-09-16T12:04:33.705Z,4.43
2022-09-16T12:07:14.725Z,4.57
2022-09-16T12:09:56.968Z,5.03
2022-09-16T12:12:29.544Z,4.28
2022-09-16T12:15:13.363Z,4.45
2022-09-16T12:17:49.132Z,4.50
2022-09-16T12:20:20.907Z,5.30
2022-09-16T12:23:02.465Z,4.82
2022-09-16T12:26:09.465Z,4.63
2022-09-16T12:29:25.825Z,4.57
2022-09-16T12:32:01.388Z,4.20
2022-09-16T12:34:55.604Z,4.63
2022-09-16T12:37:48.532Z,4.35
2022-09-16T12:40:50.223Z,4.72
2022-09-16T12:43:16.877Z,4.17
2022-09-16T12:45:46.446Z,4.10
2022-09-16T12:48:40.980Z,3.75
2022-09-16T12:51:29.716Z,3.53
2022-09-16T12:54:24.509Z,4.47
2022-09-16T12:56:56.807Z,3.97
2022-09-16T12:59:32.451Z,3.70
2022-09-16T13:02:06.367Z,3.65
2022-09-16T13:05:03.647Z,3.92
2022-09-16T13:07:35.011Z,3.50
2022-09-16T13:10:08.368Z,3.80
2022-09-16T13:12:43.707Z,4.03
2022-09-16T13:15:25.020Z,3.90
2022-09-16T13:17:54.876Z,3.50
2022-09-16T13:20:34.692Z,3.75
2022-09-16T13:23:12.854Z,4.05
2022-09-16T13:25:50.802Z,3.72
2022-09-16T13:28:25.155Z,3.47
2022-09-16T13:30:52.818Z,3.72
2022-09-16T13:33:22.973Z,4.00
2022-09-16T13:36:11.451Z,4.28
2022-09-16T13:38:41.482Z,4.45
2022-09-16T13:41:11.871Z,4.00
2022-09-16T13:43:47.436Z,4.03
2022-09-16T13:46:38.003Z,8.23
2022-09-16T13:49:10.950Z,4.60
2022-09-16T13:51:46.690Z,4.88
2022-09-16T13:54:26.076Z,4.78
2022-09-16T13:57:43.686Z,4.40
2022-09-16T14:00:15.733Z,4.15
2022-09-16T14:03:13.884Z,4.60
2022-09-16T14:06:08.494Z,6.93
2022-09-16T14:08:44.310Z,5.10
2022-09-16T14:11:16.629Z,5.18
2022-09-16T14:13:48.603Z,5.30
2022-09-16T14:16:39.946Z,5.45
2022-09-16T14:19:12.503Z,8.23
2022-09-16T14:21:39.265Z,8.70
2022-09-16T14:24:17.189Z,9.65
2022-09-16T14:26:54.642Z,9.65
2022-09-16T14:29:22.701Z,10.18
2022-09-16T14:31:52.706Z,11.30
2022-09-16T14:34:31.234Z,10.35
2022-09-16T14:36:58.169Z,10.80
2022-09-16T14:39:27.897Z,10.80
2022-09-16T14:42:02.749Z,10.30
2022-09-16T14:44:32.473Z,13.70
2022-09-16T14:47:08.770Z,12.48
2022-09-16T14:49:40.226Z,10.88
2022-09-16T14:52:18.730Z,11.57
2022-09-16T14:54:45.793Z,11.90
2022-09-16T14:57:19.024Z,12.63
2022-09-16T14:59:45.952Z,11.23
2022-09-16T15:02:18.624Z,11.35
2022-09-16T15:04:48.326Z,10.60
2022-09-16T15:07:23.019Z,12.32
2022-09-16T15:09:56.731Z,10.40
2022-09-16T15:12:33.198Z,11.00
2022-09-16T15:15:05.731Z,11.15
2022-09-16T15:17:32.689Z,13.18
2022-09-16T15:20:00.152Z,12.07
2022-09-16T15:22:27.664Z,12.73
2022-09-16T15:24:58.504Z,12.65
2022-09-16T15:27:34.248Z,12.65
2022-09-16T15:30:05.364Z,11.65
2022-09-16T15:32:32.251Z,12.38
2022-09-16T15:35:26.621Z,12.73
2022-09-16T15:37:54.944Z,12.90
2022-09-16T15:40:30.688Z,13.23
2022-09-16T15:43:18.465Z,12.60
2022-09-16T15:46:00.488Z,13.10
2022-09-16T15:48:31.824Z,14.13
2022-09-16T15:51:06.977Z,13.27
2022-09-16T15:53:33.589Z,12.95
2022-09-16T15:56:06.415Z,13.52
2022-09-16T15:58:33.176Z,11.82
2022-09-16T16:01:14.776Z,12.38
2022-09-16T16:03:44.524Z,13.27
2022-09-16T16:06:12.332Z,12.35
2022-09-16T16:08:48.953Z,10.73
2022-09-16T16:11:20.956Z,11.65
2022-09-16T16:13:50.273Z,11.45
2022-09-16T16:16:18.168Z,10.55
2022-09-16T16:18:46.348Z,9.48
2022-09-16T16:21:16.032Z,9.52
2022-09-16T16:23:43.554Z,11.05
2022-09-16T16:26:11.612Z,17.50
2022-09-16T16:28:38.833Z,12.73
2022-09-16T16:31:16.893Z,16.70
2022-09-16T16:33:48.070Z,26.33
2022-09-16T16:36:16.845Z,18.25
2022-09-16T16:38:45.520Z,11.90
2022-09-16T16:41:13.562Z,12.27
2022-09-16T16:43:40.476Z,13.57
2022-09-16T16:46:07.427Z,12.77
2022-09-16T16:48:34.248Z,12.40
2022-09-16T16:51:04.776Z,11.77
2022-09-16T16:53:32.297Z,11.07
2022-09-16T16:56:05.919Z,11.65
2022-09-16T16:58:36.031Z,13.95
2022-09-16T17:01:19.591Z,14.63
2022-09-16T17:03:49.557Z,14.27
2022-09-16T17:06:17.854Z,14.32
2022-09-16T17:08:44.484Z,15.68
2022-09-16T17:11:16.681Z,17.17
2022-09-16T17:13:45.818Z,16.55
2022-09-16T17:16:14.288Z,17.40
2022-09-16T17:18:42.201Z,17.50
2022-09-16T17:21:20.368Z,18.45
2022-09-16T17:23:47.453Z,18.63
2022-09-16T17:26:15.583Z,21.13
2022-09-16T17:28:45.000Z,18.35
2022-09-16T17:31:24.536Z,18.30
2022-09-16T17:34:02.401Z,17.88
2022-09-16T17:36:30.897Z,18.15
2022-09-16T17:39:02.974Z,18.10
2022-09-16T17:41:29.614Z,17.02
2022-09-16T17:43:57.506Z,16.77
2022-09-16T17:46:27.469Z,16.73
2022-09-16T17:49:04.225Z,17.35
2022-09-16T17:51:32.721Z,17.50
2022-09-16T17:53:59.780Z,17.10
2022-09-16T17:56:26.437Z,14.95
2022-09-16T17:58:53.855Z,15.45
2022-09-16T18:01:26.171Z,14.10
2022-09-16T18:06:29.056Z,15.13
2022-09-16T18:08:55.794Z,16.10
2022-09-16T18:11:23.076Z,16.25
2022-09-16T18:13:58.316Z,15.18
2022-09-16T18:16:26.388Z,14.40
2022-09-16T18:18:55.174Z,14.23
2022-09-16T18:21:23.971Z,13.45
2022-09-16T18:23:56.233Z,12.35
2022-09-16T18:26:23.688Z,13.20
2022-09-16T18:29:09.448Z,12.93
2022-09-16T18:31:38.035Z,24.55
2022-09-16T18:34:05.173Z,20.27
2022-09-16T18:36:33.394Z,25.63
2022-09-16T18:39:00.119Z,15.93
2022-09-16T18:41:29.413Z,13.75
2022-09-16T18:43:59.297Z,14.70
2022-09-16T18:46:27.368Z,13.18
2022-09-16T18:48:55.198Z,11.85
2022-09-16T18:51:23.337Z,11.82
2022-09-16T18:53:52.119Z,12.10
2022-09-16T18:56:21.321Z,11.18
2022-09-16T18:59:10.019Z,11.30
2022-09-16T19:01:37.016Z,11.95
2022-09-16T19:04:07.254Z,11.90
2022-09-16T19:06:38.567Z,12.00
2022-09-16T19:09:07.829Z,12.70
2022-09-16T19:11:35.485Z,12.30
2022-09-16T19:14:03.386Z,12.63
2022-09-16T19:16:31.010Z,12.45
2022-09-16T19:18:57.696Z,10.48
2022-09-16T19:21:24.944Z,9.32
2022-09-16T19:23:58.655Z,8.07
2022-09-16T19:26:27.587Z,7.50
2022-09-16T19:28:54.617Z,6.60
2022-09-16T19:31:23.064Z,6.38
2022-09-16T19:33:50.171Z,6.07
2022-09-16T19:36:19.399Z,5.45
2022-09-16T19:38:47.408Z,4.75
2022-09-16T19:41:14.472Z,4.43
2022-09-16T19:43:41.523Z,4.20
2022-09-16T19:46:08.316Z,4.63
2022-09-16T19:48:37.868Z,4.50
2022-09-16T19:51:06.347Z,4.75
2022-09-16T19:53:34.335Z,4.13
2022-09-16T19:56:06.168Z,4.18
2022-09-16T19:58:35.477Z,4.45
2022-09-16T20:01:13.931Z,4.40
2022-09-16T20:03:43.892Z,4.38
2022-09-16T20:06:34.984Z,4.65
2022-09-16T20:09:03.782Z,4.45
2022-09-16T20:11:33.517Z,4.80
2022-09-16T20:14:04.038Z,4.65
2022-09-16T20:16:38.960Z,4.55
2022-09-16T20:19:08.690Z,4.57
2022-09-16T20:21:36.301Z,4.40
2022-09-16T20:24:07.809Z,4.60
2022-09-16T20:26:35.978Z,3.88
2022-09-16T20:29:03.638Z,4.30
2022-09-16T20:31:34.910Z,4.40
2022-09-16T20:34:02.283Z,4.75
2022-09-16T20:36:30.964Z,4.30
2022-09-16T20:39:00.109Z,4.28
2022-09-16T20:41:29.425Z,4.57
2022-09-16T20:43:56.707Z,4.60
2022-09-16T20:46:26.109Z,4.38
2022-09-16T20:48:56.947Z,4.28
2022-09-16T20:51:27.264Z,3.85
2022-09-16T20:54:07.375Z,4.40
2022-09-16T20:56:39.638Z,4.43
2022-09-16T20:59:10.853Z,3.92
2022-09-16T21:01:39.669Z,4.32
2022-09-16T21:04:10.866Z,5.10
2022-09-16T21:06:37.565Z,4.43
2022-09-16T21:09:07.371Z,4.00
2022-09-16T21:11:34.049Z,4.43
2022-09-16T21:14:06.513Z,7.78
2022-09-16T21:16:35.025Z,9.55
2022-09-16T21:19:04.104Z,51.38
2022-09-16T21:21:31.650Z,5.85
2022-09-16T21:24:00.465Z,4.30
2022-09-16T21:26:31.025Z,5.10
2022-09-16T21:28:58.759Z,4.72
2022-09-16T21:31:27.938Z,4.32
2022-09-16T21:33:55.289Z,4.82
2022-09-16T21:36:23.385Z,4.57
2022-09-16T21:38:50.385Z,4.03
2022-09-16T21:41:19.448Z,4.43
2022-09-16T21:43:49.334Z,4.15
2022-09-16T21:46:21.090Z,4.25
2022-09-16T21:48:51.713Z,4.70
2022-09-16T21:51:19.898Z,4.50
2022-09-16T21:53:47.345Z,4.20
2022-09-16T21:56:21.247Z,4.60
2022-09-16T21:58:49.949Z,3.95
2022-09-16T22:01:19.747Z,4.50
2022-09-16T22:04:01.523Z,4.38
2022-09-16T22:06:28.568Z,4.50
2022-09-16T22:08:57.307Z,3.97
2022-09-16T22:11:26.260Z,4.05
2022-09-16T22:13:54.386Z,4.35
2022-09-16T22:16:26.940Z,4.03
2022-09-16T22:18:56.154Z,3.83
2022-09-16T22:21:24.792Z,3.95
2022-09-16T22:23:51.601Z,3.72
2022-09-16T22:26:21.093Z,3.83
2022-09-16T22:28:49.425Z,3.67
2022-09-16T22:31:17.737Z,3.53
2022-09-16T22:33:46.625Z,3.97
2022-09-16T22:36:16.498Z,3.72
2022-09-16T22:38:47.362Z,4.00
2022-09-16T22:41:15.464Z,3.40
2022-09-16T22:43:44.913Z,3.88
2022-09-16T22:46:21.546Z,3.38
2022-09-16T22:48:49.015Z,3.83
2022-09-16T22:51:17.483Z,3.70
2022-09-16T22:53:44.831Z,3.60
2022-09-16T22:56:24.975Z,4.03
2022-09-16T22:58:53.810Z,3.95
2022-09-16T23:01:26.958Z,3.70
2022-09-16T23:03:56.150Z,3.80
2022-09-16T23:06:24.795Z,3.65
2022-09-16T23:08:51.720Z,3.70
2022-09-16T23:11:21.015Z,3.67
2022-09-16T23:13:50.339Z,3.90
2022-09-16T23:16:20.670Z,4.00
2022-09-16T23:18:49.001Z,3.92
2022-09-16T23:21:17.902Z,4.32
2022-09-16T23:23:46.846Z,3.80
2022-09-16T23:26:18.176Z,3.88
2022-09-16T23:28:45.876Z,3.88
2022-09-16T23:31:14.876Z,4.30
2022-09-16T23:33:42.564Z,3.75
2022-09-16T23:36:11.981Z,4.60
2022-09-16T23:38:40.119Z,4.80
2022-09-16T23:41:10.723Z,4.88
2022-09-16T23:43:38.447Z,4.90
2022-09-16T23:46:05.818Z,5.00
2022-09-16T23:48:32.480Z,5.10
2022-09-16T23:50:59.627Z,5.70
2022-09-16T23:53:26.428Z,5.28
2022-09-16T23:55:53.148Z,5.18
2022-09-16T23:58:20.411Z,5.30
